sensor_id;sensor_type;location;lat;lon;timestamp;P1;durP1;ratioP1;P2;durP2;ratioP2
20322;SDS011;10319;52.206;20.996;2022-07-29T00:01:21;6.80;;;1.80;;
20322;SDS011;10319;52.206;20.996;2022-07-29T00:03:46;8.55;;;1.80;;
20322;SDS011;10319;52.206;20.996;2022-07-29T00:06:11;11.07;;;2.22;;
20322;SDS011;10319;52.206;20.996;2022-07-29T00:08:36;8.80;;;1.80;;
20322;SDS011;10319;52.206;20.996;2022-07-29T00:11:02;7.63;;;1.85;;
20322;SDS011;10319;52.206;20.996;2022-07-29T00:13:27;6.18;;;1.70;;
20322;SDS011;10319;52.206;20.996;2022-07-29T00:15:52;6.55;;;1.60;;
20322;SDS011;10319;52.206;20.996;2022-07-29T00:18:17;6.65;;;1.42;;
20322;SDS011;10319;52.206;20.996;2022-07-29T00:20:43;6.93;;;1.48;;
20322;SDS011;10319;52.206;20.996;2022-07-29T00:23:08;5.22;;;1.48;;
20322;SDS011;10319;52.206;20.996;2022-07-29T00:25:33;7.68;;;1.70;;
20322;SDS011;10319;52.206;20.996;2022-07-29T00:27:58;8.32;;;1.70;;
20322;SDS011;10319;52.206;20.996;2022-07-29T00:30:23;6.22;;;1.50;;
20322;SDS011;10319;52.206;20.996;2022-07-29T00:32:49;7.78;;;1.73;;
20322;SDS011;10319;52.206;20.996;2022-07-29T00:35:14;5.63;;;1.58;;
20322;SDS011;10319;52.206;20.996;2022-07-29T00:37:57;7.55;;;1.70;;
20322;SDS011;10319;52.206;20.996;2022-07-29T00:40:23;5.97;;;1.50;;
20322;SDS011;10319;52.206;20.996;2022-07-29T00:42:49;4.68;;;1.33;;
20322;SDS011;10319;52.206;20.996;2022-07-29T00:45:14;4.57;;;1.40;;
20322;SDS011;10319;52.206;20.996;2022-07-29T00:47:40;4.47;;;1.30;;
20322;SDS011;10319;52.206;20.996;2022-07-29T00:50:06;4.05;;;1.20;;
20322;SDS011;10319;52.206;20.996;2022-07-29T00:52:32;2.70;;;1.05;;
20322;SDS011;10319;52.206;20.996;2022-07-29T00:54:57;6.60;;;1.45;;
20322;SDS011;10319;52.206;20.996;2022-07-29T00:57:23;6.93;;;1.40;;
20322;SDS011;10319;52.206;20.996;2022-07-29T00:59:48;4.00;;;1.17;;
20322;SDS011;10319;52.206;20.996;2022-07-29T01:02:13;5.38;;;1.40;;
20322;SDS011;10319;52.206;20.996;2022-07-29T01:04:38;7.20;;;1.63;;
20322;SDS011;10319;52.206;20.996;2022-07-29T01:07:04;5.20;;;1.20;;
20322;SDS011;10319;52.206;20.996;2022-07-29T01:09:31;5.10;;;1.30;;
20322;SDS011;10319;52.206;20.996;2022-07-29T01:11:57;6.90;;;1.45;;
20322;SDS011;10319;52.206;20.996;2022-07-29T01:14:22;5.07;;;1.20;;
20322;SDS011;10319;52.206;20.996;2022-07-29T01:19:26;5.93;;;1.55;;
20322;SDS011;10319;52.206;20.996;2022-07-29T01:21:57;4.55;;;1.30;;
20322;SDS011;10319;52.206;20.996;2022-07-29T01:24:33;5.95;;;1.35;;
20322;SDS011;10319;52.206;20.996;2022-07-29T01:27:03;6.07;;;1.30;;
20322;SDS011;10319;52.206;20.996;2022-07-29T01:29:44;6.15;;;1.30;;
20322;SDS011;10319;52.206;20.996;2022-07-29T01:32:11;6.03;;;1.20;;
20322;SDS011;10319;52.206;20.996;2022-07-29T01:37:23;5.97;;;1.35;;
20322;SDS011;10319;52.206;20.996;2022-07-29T01:39:51;6.10;;;1.00;;
20322;SDS011;10319;52.206;20.996;2022-07-29T01:42:26;6.13;;;1.50;;
20322;SDS011;10319;52.206;20.996;2022-07-29T01:45:06;6.50;;;1.10;;
20322;SDS011;10319;52.206;20.996;2022-07-29T01:47:34;4.07;;;1.10;;
20322;SDS011;10319;52.206;20.996;2022-07-29T01:50:03;4.03;;;1.13;;
20322;SDS011;10319;52.206;20.996;2022-07-29T01:54:56;5.07;;;0.98;;
20322;SDS011;10319;52.206;20.996;2022-07-29T01:57:27;4.88;;;1.10;;
20322;SDS011;10319;52.206;20.996;2022-07-29T01:59:54;4.70;;;1.17;;
20322;SDS011;10319;52.206;20.996;2022-07-29T02:02:20;4.88;;;1.20;;
20322;SDS011;10319;52.206;20.996;2022-07-29T02:04:46;3.80;;;1.20;;
20322;SDS011;10319;52.206;20.996;2022-07-29T02:07:13;3.90;;;0.88;;
20322;SDS011;10319;52.206;20.996;2022-07-29T02:09:39;2.17;;;0.80;;
20322;SDS011;10319;52.206;20.996;2022-07-29T02:12:05;3.95;;;0.98;;
20322;SDS011;10319;52.206;20.996;2022-07-29T02:14:34;5.80;;;1.30;;
20322;SDS011;10319;52.206;20.996;2022-07-29T02:17:00;3.80;;;1.02;;
20322;SDS011;10319;52.206;20.996;2022-07-29T02:19:26;2.60;;;1.02;;
20322;SDS011;10319;52.206;20.996;2022-07-29T02:21:52;3.90;;;0.93;;
20322;SDS011;10319;52.206;20.996;2022-07-29T02:24:18;3.90;;;0.90;;
20322;SDS011;10319;52.206;20.996;2022-07-29T02:26:45;6.95;;;1.50;;
20322;SDS011;10319;52.206;20.996;2022-07-29T02:29:11;3.35;;;0.85;;
20322;SDS011;10319;52.206;20.996;2022-07-29T02:31:37;4.20;;;0.90;;
20322;SDS011;10319;52.206;20.996;2022-07-29T02:34:03;3.15;;;1.00;;
20322;SDS011;10319;52.206;20.996;2022-07-29T02:36:29;4.55;;;1.20;;
20322;SDS011;10319;52.206;20.996;2022-07-29T02:38:56;5.07;;;1.00;;
20322;SDS011;10319;52.206;20.996;2022-07-29T02:41:26;3.95;;;0.90;;
20322;SDS011;10319;52.206;20.996;2022-07-29T02:43:53;3.47;;;0.77;;
20322;SDS011;10319;52.206;20.996;2022-07-29T02:46:21;4.30;;;1.10;;
20322;SDS011;10319;52.206;20.996;2022-07-29T02:48:53;4.05;;;0.90;;
20322;SDS011;10319;52.206;20.996;2022-07-29T02:51:23;3.20;;;0.90;;
20322;SDS011;10319;52.206;20.996;2022-07-29T02:53:51;3.00;;;0.90;;
20322;SDS011;10319;52.206;20.996;2022-07-29T02:56:18;4.50;;;0.95;;
20322;SDS011;10319;52.206;20.996;2022-07-29T02:58:46;2.70;;;0.90;;
20322;SDS011;10319;52.206;20.996;2022-07-29T03:01:14;5.28;;;0.80;;
20322;SDS011;10319;52.206;20.996;2022-07-29T03:03:40;4.55;;;0.90;;
20322;SDS011;10319;52.206;20.996;2022-07-29T03:06:07;6.20;;;1.13;;
20322;SDS011;10319;52.206;20.996;2022-07-29T03:08:33;4.00;;;0.93;;
20322;SDS011;10319;52.206;20.996;2022-07-29T03:10:59;2.83;;;0.70;;
20322;SDS011;10319;52.206;20.996;2022-07-29T03:13:25;4.85;;;0.98;;
20322;SDS011;10319;52.206;20.996;2022-07-29T03:15:51;4.28;;;0.90;;
20322;SDS011;10319;52.206;20.996;2022-07-29T03:18:16;2.75;;;0.88;;
20322;SDS011;10319;52.206;20.996;2022-07-29T03:20:42;3.92;;;0.93;;
20322;SDS011;10319;52.206;20.996;2022-07-29T03:23:08;3.13;;;1.00;;
20322;SDS011;10319;52.206;20.996;2022-07-29T03:25:33;3.45;;;0.77;;
20322;SDS011;10319;52.206;20.996;2022-07-29T03:27:59;3.40;;;0.93;;
20322;SDS011;10319;52.206;20.996;2022-07-29T03:30:24;4.65;;;0.85;;
20322;SDS011;10319;52.206;20.996;2022-07-29T03:32:50;2.72;;;0.60;;
20322;SDS011;10319;52.206;20.996;2022-07-29T03:35:15;6.78;;;1.33;;
20322;SDS011;10319;52.206;20.996;2022-07-29T03:37:44;4.00;;;1.13;;
20322;SDS011;10319;52.206;20.996;2022-07-29T03:40:11;3.40;;;0.85;;
20322;SDS011;10319;52.206;20.996;2022-07-29T03:42:37;4.47;;;0.95;;
20322;SDS011;10319;52.206;20.996;2022-07-29T03:45:08;4.85;;;1.00;;
20322;SDS011;10319;52.206;20.996;2022-07-29T03:47:35;3.33;;;0.80;;
20322;SDS011;10319;52.206;20.996;2022-07-29T03:50:02;1.90;;;0.70;;
20322;SDS011;10319;52.206;20.996;2022-07-29T03:52:29;3.30;;;0.93;;
20322;SDS011;10319;52.206;20.996;2022-07-29T03:54:55;3.60;;;1.05;;
20322;SDS011;10319;52.206;20.996;2022-07-29T03:57:21;4.68;;;1.10;;
20322;SDS011;10319;52.206;20.996;2022-07-29T03:59:48;2.10;;;0.80;;
20322;SDS011;10319;52.206;20.996;2022-07-29T04:02:13;2.55;;;0.80;;
20322;SDS011;10319;52.206;20.996;2022-07-29T04:04:39;2.88;;;0.80;;
20322;SDS011;10319;52.206;20.996;2022-07-29T04:07:04;7.85;;;1.33;;
20322;SDS011;10319;52.206;20.996;2022-07-29T04:09:29;4.70;;;1.20;;
20322;SDS011;10319;52.206;20.996;2022-07-29T04:11:55;2.92;;;0.70;;
20322;SDS011;10319;52.206;20.996;2022-07-29T04:14:20;5.75;;;1.00;;
20322;SDS011;10319;52.206;20.996;2022-07-29T04:16:45;3.20;;;0.77;;
20322;SDS011;10319;52.206;20.996;2022-07-29T04:19:11;4.95;;;0.90;;
20322;SDS011;10319;52.206;20.996;2022-07-29T04:21:36;2.70;;;0.80;;
20322;SDS011;10319;52.206;20.996;2022-07-29T04:24:02;4.85;;;0.80;;
20322;SDS011;10319;52.206;20.996;2022-07-29T04:26:27;4.35;;;0.95;;
20322;SDS011;10319;52.206;20.996;2022-07-29T04:28:52;3.45;;;0.90;;
20322;SDS011;10319;52.206;20.996;2022-07-29T04:31:17;6.22;;;0.95;;
20322;SDS011;10319;52.206;20.996;2022-07-29T04:33:42;3.25;;;0.88;;
20322;SDS011;10319;52.206;20.996;2022-07-29T04:36:07;6.57;;;1.02;;
20322;SDS011;10319;52.206;20.996;2022-07-29T04:38:33;2.58;;;0.80;;
20322;SDS011;10319;52.206;20.996;2022-07-29T04:40:58;3.72;;;0.60;;
20322;SDS011;10319;52.206;20.996;2022-07-29T04:43:23;5.22;;;0.90;;
20322;SDS011;10319;52.206;20.996;2022-07-29T04:45:49;3.20;;;0.60;;
20322;SDS011;10319;52.206;20.996;2022-07-29T04:48:15;4.80;;;1.00;;
20322;SDS011;10319;52.206;20.996;2022-07-29T04:50:40;3.15;;;0.70;;
20322;SDS011;10319;52.206;20.996;2022-07-29T04:53:06;4.45;;;1.05;;
20322;SDS011;10319;52.206;20.996;2022-07-29T04:55:31;3.53;;;0.80;;
20322;SDS011;10319;52.206;20.996;2022-07-29T04:57:56;2.17;;;0.70;;
20322;SDS011;10319;52.206;20.996;2022-07-29T05:00:22;4.30;;;0.98;;
20322;SDS011;10319;52.206;20.996;2022-07-29T05:02:48;5.10;;;0.80;;
20322;SDS011;10319;52.206;20.996;2022-07-29T05:05:13;5.20;;;0.93;;
20322;SDS011;10319;52.206;20.996;2022-07-29T05:07:38;4.05;;;1.00;;
20322;SDS011;10319;52.206;20.996;2022-07-29T05:10:03;4.13;;;0.63;;
20322;SDS011;10319;52.206;20.996;2022-07-29T05:12:29;4.47;;;0.90;;
20322;SDS011;10319;52.206;20.996;2022-07-29T05:14:54;3.60;;;0.80;;
20322;SDS011;10319;52.206;20.996;2022-07-29T05:17:20;4.28;;;0.90;;
20322;SDS011;10319;52.206;20.996;2022-07-29T05:19:45;3.60;;;0.70;;
20322;SDS011;10319;52.206;20.996;2022-07-29T05:22:10;4.97;;;1.00;;
20322;SDS011;10319;52.206;20.996;2022-07-29T05:24:35;3.22;;;1.00;;
20322;SDS011;10319;52.206;20.996;2022-07-29T05:27:00;5.45;;;1.10;;
20322;SDS011;10319;52.206;20.996;2022-07-29T05:29:25;5.63;;;1.00;;
20322;SDS011;10319;52.206;20.996;2022-07-29T05:31:51;4.85;;;1.20;;
20322;SDS011;10319;52.206;20.996;2022-07-29T05:34:17;3.97;;;0.90;;
20322;SDS011;10319;52.206;20.996;2022-07-29T05:36:43;4.95;;;1.05;;
20322;SDS011;10319;52.206;20.996;2022-07-29T05:39:08;3.50;;;0.85;;
20322;SDS011;10319;52.206;20.996;2022-07-29T05:41:34;7.32;;;0.93;;
20322;SDS011;10319;52.206;20.996;2022-07-29T05:43:59;4.40;;;1.23;;
20322;SDS011;10319;52.206;20.996;2022-07-29T05:46:24;4.45;;;1.20;;
20322;SDS011;10319;52.206;20.996;2022-07-29T05:48:49;5.45;;;0.90;;
20322;SDS011;10319;52.206;20.996;2022-07-29T05:51:15;5.00;;;1.10;;
20322;SDS011;10319;52.206;20.996;2022-07-29T05:53:40;5.45;;;1.30;;
20322;SDS011;10319;52.206;20.996;2022-07-29T05:56:05;7.72;;;1.50;;
20322;SDS011;10319;52.206;20.996;2022-07-29T05:58:31;4.78;;;1.05;;
20322;SDS011;10319;52.206;20.996;2022-07-29T06:00:56;6.85;;;1.30;;
20322;SDS011;10319;52.206;20.996;2022-07-29T06:03:24;6.38;;;1.20;;
20322;SDS011;10319;52.206;20.996;2022-07-29T06:05:49;4.55;;;1.05;;
20322;SDS011;10319;52.206;20.996;2022-07-29T06:08:14;5.60;;;1.00;;
20322;SDS011;10319;52.206;20.996;2022-07-29T06:10:40;6.38;;;1.23;;
20322;SDS011;10319;52.206;20.996;2022-07-29T06:13:05;6.30;;;1.33;;
20322;SDS011;10319;52.206;20.996;2022-07-29T06:15:30;8.90;;;1.30;;
20322;SDS011;10319;52.206;20.996;2022-07-29T06:17:55;7.75;;;1.10;;
20322;SDS011;10319;52.206;20.996;2022-07-29T06:20:20;3.08;;;0.65;;
20322;SDS011;10319;52.206;20.996;2022-07-29T06:22:45;2.92;;;0.70;;
20322;SDS011;10319;52.206;20.996;2022-07-29T06:25:11;4.85;;;1.13;;
20322;SDS011;10319;52.206;20.996;2022-07-29T06:27:36;2.55;;;0.68;;
20322;SDS011;10319;52.206;20.996;2022-07-29T06:30:02;1.88;;;0.60;;
20322;SDS011;10319;52.206;20.996;2022-07-29T06:32:27;2.85;;;0.68;;
20322;SDS011;10319;52.206;20.996;2022-07-29T06:34:53;1.67;;;0.38;;
20322;SDS011;10319;52.206;20.996;2022-07-29T06:37:18;2.33;;;0.52;;
20322;SDS011;10319;52.206;20.996;2022-07-29T06:39:43;3.05;;;0.40;;
20322;SDS011;10319;52.206;20.996;2022-07-29T06:42:08;3.80;;;0.63;;
20322;SDS011;10319;52.206;20.996;2022-07-29T06:44:33;3.25;;;0.80;;
20322;SDS011;10319;52.206;20.996;2022-07-29T06:46:59;3.08;;;0.50;;
20322;SDS011;10319;52.206;20.996;2022-07-29T06:49:24;2.00;;;0.60;;
20322;SDS011;10319;52.206;20.996;2022-07-29T06:51:51;8.23;;;1.25;;
20322;SDS011;10319;52.206;20.996;2022-07-29T06:54:16;6.05;;;1.00;;
20322;SDS011;10319;52.206;20.996;2022-07-29T06:56:41;7.47;;;0.88;;
20322;SDS011;10319;52.206;20.996;2022-07-29T06:59:08;3.08;;;0.57;;
20322;SDS011;10319;52.206;20.996;2022-07-29T07:01:34;2.58;;;0.38;;
20322;SDS011;10319;52.206;20.996;2022-07-29T07:03:59;6.40;;;0.65;;
20322;SDS011;10319;52.206;20.996;2022-07-29T07:06:24;5.72;;;0.60;;
20322;SDS011;10319;52.206;20.996;2022-07-29T07:08:50;3.70;;;0.60;;
20322;SDS011;10319;52.206;20.996;2022-07-29T07:11:15;3.45;;;0.60;;
20322;SDS011;10319;52.206;20.996;2022-07-29T07:13:40;3.08;;;0.50;;
20322;SDS011;10319;52.206;20.996;2022-07-29T07:16:05;5.05;;;0.88;;
20322;SDS011;10319;52.206;20.996;2022-07-29T07:18:30;2.42;;;0.50;;
20322;SDS011;10319;52.206;20.996;2022-07-29T07:20:56;4.47;;;0.70;;
20322;SDS011;10319;52.206;20.996;2022-07-29T07:23:21;3.13;;;0.60;;
20322;SDS011;10319;52.206;20.996;2022-07-29T07:25:46;3.13;;;0.40;;
20322;SDS011;10319;52.206;20.996;2022-07-29T07:28:11;2.03;;;0.40;;
20322;SDS011;10319;52.206;20.996;2022-07-29T07:30:37;2.15;;;0.57;;
20322;SDS011;10319;52.206;20.996;2022-07-29T07:33:02;3.97;;;0.60;;
20322;SDS011;10319;52.206;20.996;2022-07-29T07:35:27;2.85;;;0.47;;
20322;SDS011;10319;52.206;20.996;2022-07-29T07:37:54;2.15;;;0.60;;
20322;SDS011;10319;52.206;20.996;2022-07-29T07:40:19;2.92;;;0.43;;
20322;SDS011;10319;52.206;20.996;2022-07-29T07:42:44;5.65;;;0.75;;
20322;SDS011;10319;52.206;20.996;2022-07-29T07:45:09;4.93;;;0.90;;
20322;SDS011;10319;52.206;20.996;2022-07-29T07:47:36;6.13;;;0.90;;
20322;SDS011;10319;52.206;20.996;2022-07-29T07:50:02;2.65;;;0.40;;
20322;SDS011;10319;52.206;20.996;2022-07-29T07:52:27;4.93;;;0.80;;
20322;SDS011;10319;52.206;20.996;2022-07-29T07:54:52;2.47;;;0.60;;
20322;SDS011;10319;52.206;20.996;2022-07-29T07:57:18;2.95;;;0.47;;
20322;SDS011;10319;52.206;20.996;2022-07-29T07:59:43;1.55;;;0.32;;
20322;SDS011;10319;52.206;20.996;2022-07-29T08:02:08;1.67;;;0.50;;
20322;SDS011;10319;52.206;20.996;2022-07-29T08:04:34;4.10;;;0.60;;
20322;SDS011;10319;52.206;20.996;2022-07-29T08:06:59;3.88;;;0.50;;
20322;SDS011;10319;52.206;20.996;2022-07-29T08:09:25;4.78;;;0.60;;
20322;SDS011;10319;52.206;20.996;2022-07-29T08:11:51;5.68;;;0.88;;
20322;SDS011;10319;52.206;20.996;2022-07-29T08:14:16;3.78;;;0.80;;
20322;SDS011;10319;52.206;20.996;2022-07-29T08:16:41;4.20;;;0.85;;
20322;SDS011;10319;52.206;20.996;2022-07-29T08:19:07;3.10;;;0.50;;
20322;SDS011;10319;52.206;20.996;2022-07-29T08:21:32;3.35;;;0.75;;
20322;SDS011;10319;52.206;20.996;2022-07-29T08:23:58;2.22;;;0.50;;
20322;SDS011;10319;52.206;20.996;2022-07-29T08:26:43;3.47;;;0.63;;
20322;SDS011;10319;52.206;20.996;2022-07-29T08:29:08;5.28;;;1.00;;
20322;SDS011;10319;52.206;20.996;2022-07-29T08:31:34;2.08;;;0.52;;
20322;SDS011;10319;52.206;20.996;2022-07-29T08:33:59;3.90;;;0.68;;
20322;SDS011;10319;52.206;20.996;2022-07-29T08:36:25;3.25;;;0.50;;
20322;SDS011;10319;52.206;20.996;2022-07-29T08:38:50;2.10;;;0.35;;
20322;SDS011;10319;52.206;20.996;2022-07-29T08:41:16;1.20;;;0.25;;
20322;SDS011;10319;52.206;20.996;2022-07-29T08:43:43;3.35;;;0.60;;
20322;SDS011;10319;52.206;20.996;2022-07-29T08:46:09;1.90;;;0.45;;
20322;SDS011;10319;52.206;20.996;2022-07-29T08:48:34;2.75;;;0.50;;
20322;SDS011;10319;52.206;20.996;2022-07-29T08:50:59;3.55;;;0.57;;
20322;SDS011;10319;52.206;20.996;2022-07-29T08:53:26;1.63;;;0.47;;
20322;SDS011;10319;52.206;20.996;2022-07-29T08:55:52;2.72;;;0.45;;
20322;SDS011;10319;52.206;20.996;2022-07-29T08:58:17;2.95;;;0.47;;
20322;SDS011;10319;52.206;20.996;2022-07-29T09:00:44;2.63;;;0.45;;
20322;SDS011;10319;52.206;20.996;2022-07-29T09:03:11;2.28;;;0.43;;
20322;SDS011;10319;52.206;20.996;2022-07-29T09:05:37;3.40;;;0.38;;
20322;SDS011;10319;52.206;20.996;2022-07-29T09:08:05;3.13;;;0.47;;
20322;SDS011;10319;52.206;20.996;2022-07-29T09:10:31;3.05;;;0.68;;
20322;SDS011;10319;52.206;20.996;2022-07-29T09:12:56;2.80;;;0.60;;
20322;SDS011;10319;52.206;20.996;2022-07-29T09:15:21;1.60;;;0.38;;
20322;SDS011;10319;52.206;20.996;2022-07-29T09:17:47;2.70;;;0.63;;
20322;SDS011;10319;52.206;20.996;2022-07-29T09:20:14;3.75;;;0.70;;
20322;SDS011;10319;52.206;20.996;2022-07-29T09:22:39;6.32;;;0.68;;
20322;SDS011;10319;52.206;20.996;2022-07-29T09:25:05;2.40;;;0.43;;
20322;SDS011;10319;52.206;20.996;2022-07-29T09:27:30;4.30;;;0.60;;
20322;SDS011;10319;52.206;20.996;2022-07-29T09:30:05;2.83;;;0.30;;
20322;SDS011;10319;52.206;20.996;2022-07-29T09:32:32;1.48;;;0.22;;
20322;SDS011;10319;52.206;20.996;2022-07-29T09:37:41;5.15;;;0.60;;
20322;SDS011;10319;52.206;20.996;2022-07-29T09:40:13;1.83;;;0.73;;
20322;SDS011;10319;52.206;20.996;2022-07-29T09:42:38;3.03;;;0.50;;
20322;SDS011;10319;52.206;20.996;2022-07-29T09:45:04;3.38;;;0.57;;
20322;SDS011;10319;52.206;20.996;2022-07-29T09:47:42;1.75;;;0.47;;
20322;SDS011;10319;52.206;20.996;2022-07-29T09:50:10;2.20;;;0.28;;
20322;SDS011;10319;52.206;20.996;2022-07-29T09:52:44;1.98;;;0.30;;
20322;SDS011;10319;52.206;20.996;2022-07-29T09:55:09;1.70;;;0.43;;
20322;SDS011;10319;52.206;20.996;2022-07-29T09:57:35;2.03;;;0.40;;
20322;SDS011;10319;52.206;20.996;2022-07-29T10:00:01;4.88;;;0.70;;
20322;SDS011;10319;52.206;20.996;2022-07-29T10:02:28;3.17;;;0.65;;
20322;SDS011;10319;52.206;20.996;2022-07-29T10:04:53;4.25;;;0.60;;
20322;SDS011;10319;52.206;20.996;2022-07-29T10:07:18;2.22;;;0.43;;
20322;SDS011;10319;52.206;20.996;2022-07-29T10:09:54;1.10;;;0.30;;
20322;SDS011;10319;52.206;20.996;2022-07-29T10:12:20;3.30;;;0.40;;
20322;SDS011;10319;52.206;20.996;2022-07-29T10:14:45;2.42;;;0.50;;
20322;SDS011;10319;52.206;20.996;2022-07-29T10:17:11;2.95;;;0.45;;
20322;SDS011;10319;52.206;20.996;2022-07-29T10:19:37;1.80;;;0.50;;
20322;SDS011;10319;52.206;20.996;2022-07-29T10:22:04;3.28;;;0.77;;
20322;SDS011;10319;52.206;20.996;2022-07-29T10:24:30;3.28;;;0.50;;
20322;SDS011;10319;52.206;20.996;2022-07-29T10:26:56;1.88;;;0.30;;
20322;SDS011;10319;52.206;20.996;2022-07-29T10:29:22;1.30;;;0.25;;
20322;SDS011;10319;52.206;20.996;2022-07-29T10:39:52;2.10;;;0.38;;
20322;SDS011;10319;52.206;20.996;2022-07-29T10:42:20;4.10;;;0.70;;
20322;SDS011;10319;52.206;20.996;2022-07-29T10:44:46;2.20;;;0.50;;
20322;SDS011;10319;52.206;20.996;2022-07-29T10:47:25;0.85;;;0.30;;
20322;SDS011;10319;52.206;20.996;2022-07-29T10:50:00;2.15;;;0.50;;
20322;SDS011;10319;52.206;20.996;2022-07-29T10:55:25;2.10;;;0.45;;
20322;SDS011;10319;52.206;20.996;2022-07-29T10:58:28;2.25;;;0.32;;
20322;SDS011;10319;52.206;20.996;2022-07-29T11:00:48;1.33;;;0.20;;
20322;SDS011;10319;52.206;20.996;2022-07-29T11:05:57;2.30;;;0.40;;
20322;SDS011;10319;52.206;20.996;2022-07-29T11:08:23;3.17;;;0.50;;
20322;SDS011;10319;52.206;20.996;2022-07-29T11:13:46;1.77;;;0.30;;
20322;SDS011;10319;52.206;20.996;2022-07-29T11:16:12;4.18;;;0.80;;
20322;SDS011;10319;52.206;20.996;2022-07-29T11:21:43;1.83;;;0.40;;
20322;SDS011;10319;52.206;20.996;2022-07-29T11:24:11;2.25;;;0.40;;
20322;SDS011;10319;52.206;20.996;2022-07-29T11:26:37;3.78;;;0.47;;
20322;SDS011;10319;52.206;20.996;2022-07-29T11:29:03;3.78;;;0.40;;
20322;SDS011;10319;52.206;20.996;2022-07-29T11:39:28;3.03;;;0.30;;
20322;SDS011;10319;52.206;20.996;2022-07-29T11:41:57;2.63;;;0.40;;
20322;SDS011;10319;52.206;20.996;2022-07-29T11:47:23;3.40;;;0.47;;
20322;SDS011;10319;52.206;20.996;2022-07-29T11:49:48;2.78;;;0.35;;
20322;SDS011;10319;52.206;20.996;2022-07-29T11:52:15;3.15;;;0.52;;
20322;SDS011;10319;52.206;20.996;2022-07-29T11:54:42;2.67;;;0.40;;
20322;SDS011;10319;52.206;20.996;2022-07-29T11:57:07;4.97;;;0.65;;
20322;SDS011;10319;52.206;20.996;2022-07-29T11:59:38;2.95;;;0.45;;
20322;SDS011;10319;52.206;20.996;2022-07-29T12:02:03;2.03;;;0.30;;
20322;SDS011;10319;52.206;20.996;2022-07-29T12:04:28;2.03;;;0.43;;
20322;SDS011;10319;52.206;20.996;2022-07-29T12:06:55;2.90;;;0.40;;
20322;SDS011;10319;52.206;20.996;2022-07-29T12:09:21;0.52;;;0.20;;
20322;SDS011;10319;52.206;20.996;2022-07-29T12:11:47;2.03;;;0.50;;
20322;SDS011;10319;52.206;20.996;2022-07-29T12:14:28;1.55;;;0.40;;
20322;SDS011;10319;52.206;20.996;2022-07-29T12:16:53;2.70;;;0.38;;
20322;SDS011;10319;52.206;20.996;2022-07-29T12:19:18;1.92;;;0.32;;
20322;SDS011;10319;52.206;20.996;2022-07-29T12:21:47;0.68;;;0.30;;
20322;SDS011;10319;52.206;20.996;2022-07-29T12:24:12;2.15;;;0.45;;
20322;SDS011;10319;52.206;20.996;2022-07-29T12:26:59;1.67;;;0.40;;
20322;SDS011;10319;52.206;20.996;2022-07-29T12:29:23;1.27;;;0.40;;
20322;SDS011;10319;52.206;20.996;2022-07-29T12:31:52;1.42;;;0.38;;
20322;SDS011;10319;52.206;20.996;2022-07-29T12:34:19;1.88;;;0.32;;
20322;SDS011;10319;52.206;20.996;2022-07-29T12:36:44;2.67;;;0.60;;
20322;SDS011;10319;52.206;20.996;2022-07-29T12:39:10;2.10;;;0.40;;
20322;SDS011;10319;52.206;20.996;2022-07-29T12:41:35;1.23;;;0.28;;
20322;SDS011;10319;52.206;20.996;2022-07-29T12:44:00;4.35;;;0.50;;
20322;SDS011;10319;52.206;20.996;2022-07-29T12:46:26;1.67;;;0.20;;
20322;SDS011;10319;52.206;20.996;2022-07-29T12:48:52;2.35;;;0.52;;
20322;SDS011;10319;52.206;20.996;2022-07-29T12:51:30;1.33;;;0.28;;
20322;SDS011;10319;52.206;20.996;2022-07-29T12:54:29;2.60;;;0.45;;
20322;SDS011;10319;52.206;20.996;2022-07-29T12:56:47;3.75;;;0.57;;
20322;SDS011;10319;52.206;20.996;2022-07-29T12:59:22;2.22;;;0.45;;
20322;SDS011;10319;52.206;20.996;2022-07-29T13:01:49;2.53;;;0.47;;
20322;SDS011;10319;52.206;20.996;2022-07-29T13:04:24;0.80;;;0.30;;
20322;SDS011;10319;52.206;20.996;2022-07-29T13:06:57;2.97;;;0.47;;
20322;SDS011;10319;52.206;20.996;2022-07-29T13:09:22;3.25;;;0.60;;
20322;SDS011;10319;52.206;20.996;2022-07-29T13:14:14;2.97;;;0.50;;
20322;SDS011;10319;52.206;20.996;2022-07-29T13:19:35;4.07;;;0.85;;
20322;SDS011;10319;52.206;20.996;2022-07-29T13:22:01;3.33;;;0.55;;
20322;SDS011;10319;52.206;20.996;2022-07-29T13:24:26;2.67;;;0.40;;
20322;SDS011;10319;52.206;20.996;2022-07-29T13:26:51;1.77;;;0.40;;
20322;SDS011;10319;52.206;20.996;2022-07-29T13:29:16;1.03;;;0.20;;
20322;SDS011;10319;52.206;20.996;2022-07-29T13:31:42;2.38;;;0.38;;
20322;SDS011;10319;52.206;20.996;2022-07-29T13:34:07;2.77;;;0.40;;
20322;SDS011;10319;52.206;20.996;2022-07-29T13:36:32;2.77;;;0.50;;
20322;SDS011;10319;52.206;20.996;2022-07-29T13:38:57;1.58;;;0.40;;
20322;SDS011;10319;52.206;20.996;2022-07-29T13:41:22;2.47;;;0.25;;
20322;SDS011;10319;52.206;20.996;2022-07-29T13:43:48;3.60;;;0.43;;
20322;SDS011;10319;52.206;20.996;2022-07-29T13:46:13;2.90;;;0.50;;
20322;SDS011;10319;52.206;20.996;2022-07-29T13:48:38;0.97;;;0.17;;
20322;SDS011;10319;52.206;20.996;2022-07-29T13:51:03;2.23;;;0.50;;
20322;SDS011;10319;52.206;20.996;2022-07-29T13:53:28;1.50;;;0.30;;
20322;SDS011;10319;52.206;20.996;2022-07-29T13:55:54;3.40;;;0.57;;
20322;SDS011;10319;52.206;20.996;2022-07-29T13:58:19;3.28;;;0.40;;
20322;SDS011;10319;52.206;20.996;2022-07-29T14:00:45;1.87;;;0.43;;
20322;SDS011;10319;52.206;20.996;2022-07-29T14:03:11;3.90;;;0.47;;
20322;SDS011;10319;52.206;20.996;2022-07-29T14:05:36;0.90;;;0.40;;
20322;SDS011;10319;52.206;20.996;2022-07-29T14:08:01;2.83;;;0.30;;
20322;SDS011;10319;52.206;20.996;2022-07-29T14:10:27;2.83;;;0.50;;
20322;SDS011;10319;52.206;20.996;2022-07-29T14:12:52;1.10;;;0.30;;
20322;SDS011;10319;52.206;20.996;2022-07-29T14:15:17;3.23;;;0.53;;
20322;SDS011;10319;52.206;20.996;2022-07-29T14:17:42;2.20;;;0.30;;
20322;SDS011;10319;52.206;20.996;2022-07-29T14:20:09;1.67;;;0.45;;
20322;SDS011;10319;52.206;20.996;2022-07-29T14:22:34;1.85;;;0.40;;
20322;SDS011;10319;52.206;20.996;2022-07-29T14:24:59;2.13;;;0.40;;
20322;SDS011;10319;52.206;20.996;2022-07-29T14:27:24;1.83;;;0.50;;
20322;SDS011;10319;52.206;20.996;2022-07-29T14:29:49;1.70;;;0.40;;
20322;SDS011;10319;52.206;20.996;2022-07-29T14:32:15;2.33;;;0.50;;
20322;SDS011;10319;52.206;20.996;2022-07-29T14:34:40;4.83;;;0.47;;
20322;SDS011;10319;52.206;20.996;2022-07-29T14:37:06;4.03;;;0.50;;
20322;SDS011;10319;52.206;20.996;2022-07-29T14:39:31;4.57;;;0.50;;
20322;SDS011;10319;52.206;20.996;2022-07-29T14:41:56;1.42;;;0.10;;
20322;SDS011;10319;52.206;20.996;2022-07-29T14:44:22;4.23;;;0.63;;
20322;SDS011;10319;52.206;20.996;2022-07-29T14:46:47;3.70;;;0.70;;
20322;SDS011;10319;52.206;20.996;2022-07-29T14:49:12;1.58;;;0.47;;
20322;SDS011;10319;52.206;20.996;2022-07-29T14:51:37;3.37;;;0.63;;
20322;SDS011;10319;52.206;20.996;2022-07-29T14:54:03;7.07;;;0.90;;
20322;SDS011;10319;52.206;20.996;2022-07-29T14:56:28;3.47;;;0.60;;
20322;SDS011;10319;52.206;20.996;2022-07-29T14:58:55;4.10;;;0.80;;
20322;SDS011;10319;52.206;20.996;2022-07-29T15:01:20;3.75;;;0.77;;
20322;SDS011;10319;52.206;20.996;2022-07-29T15:03:45;1.27;;;0.50;;
20322;SDS011;10319;52.206;20.996;2022-07-29T15:06:10;2.38;;;0.40;;
20322;SDS011;10319;52.206;20.996;2022-07-29T15:08:36;3.05;;;0.57;;
20322;SDS011;10319;52.206;20.996;2022-07-29T15:11:01;4.63;;;0.60;;
20322;SDS011;10319;52.206;20.996;2022-07-29T15:13:26;2.40;;;0.70;;
20322;SDS011;10319;52.206;20.996;2022-07-29T15:15:52;3.20;;;0.53;;